createdAt,value
2023-05-18T00:02:16.271Z,101396.84
2023-05-18T00:04:44.357Z,101403.97
2023-05-18T00:07:13.121Z,101399.31
2023-05-18T00:09:42.425Z,101390.09
2023-05-18T00:12:10.923Z,101402.19
2023-05-18T00:14:38.560Z,101394.94
2023-05-18T00:17:06.564Z,101394.53
2023-05-18T00:19:34.215Z,101394.69
2023-05-18T00:22:02.200Z,101401.81
2023-05-18T00:24:29.944Z,101391.50
2023-05-18T00:26:58.905Z,101386.09
2023-05-18T00:29:26.511Z,101390.25
2023-05-18T00:31:54.249Z,101391.88
2023-05-18T00:34:21.992Z,101389.41
2023-05-18T00:36:49.802Z,101389.47
2023-05-18T00:39:17.574Z,101383.50
2023-05-18T00:41:45.441Z,101377.88
2023-05-18T00:44:14.539Z,101380.34
2023-05-18T00:46:44.175Z,101381.81
2023-05-18T00:49:12.552Z,101382.13
2023-05-18T00:51:40.435Z,101379.94
2023-05-18T00:54:08.359Z,101378.66
2023-05-18T00:56:41.694Z,101384.47
2023-05-18T00:59:10.500Z,101376.56
2023-05-18T01:01:43.593Z,101383.88
2023-05-18T01:04:14.328Z,101378.09
2023-05-18T01:06:42.804Z,101383.34
2023-05-18T01:09:13.492Z,101384.97
2023-05-18T01:11:52.079Z,101382.09
2023-05-18T01:14:29.336Z,101377.75
2023-05-18T01:17:14.650Z,101383.78
2023-05-18T01:20:07.026Z,101386.50
2023-05-18T01:22:46.771Z,101382.97
2023-05-18T01:25:23.651Z,101379.47
2023-05-18T01:27:56.073Z,101386.75
2023-05-18T01:30:24.432Z,101387.91
2023-05-18T01:32:52.104Z,101386.75
2023-05-18T01:35:19.856Z,101383.56
2023-05-18T01:37:47.491Z,101379.94
2023-05-18T01:40:15.578Z,101375.59
2023-05-18T01:42:48.642Z,101376.00
2023-05-18T01:45:27.407Z,101376.69
2023-05-18T01:47:59.283Z,101382.16
2023-05-18T01:50:37.616Z,101379.47
2023-05-18T01:53:09.681Z,101371.66
2023-05-18T01:55:38.129Z,101369.56
2023-05-18T01:58:07.790Z,101377.25
2023-05-18T02:00:37.668Z,101375.00
2023-05-18T02:03:05.508Z,101377.00
2023-05-18T02:05:33.169Z,101371.66
2023-05-18T02:08:01.037Z,101374.16
2023-05-18T02:10:28.753Z,101369.53
2023-05-18T02:12:56.399Z,101381.47
2023-05-18T02:15:24.187Z,101374.16
2023-05-18T02:17:58.102Z,101369.97
2023-05-18T02:20:27.432Z,101370.56
2023-05-18T02:22:56.194Z,101369.69
2023-05-18T02:25:24.144Z,101373.88
2023-05-18T02:27:52.664Z,101363.56
2023-05-18T02:30:20.935Z,101364.53
2023-05-18T02:32:49.356Z,101360.31
2023-05-18T02:35:18.945Z,101364.38
2023-05-18T02:37:47.348Z,101359.34
2023-05-18T02:40:15.956Z,101364.81
2023-05-18T02:42:43.859Z,101361.59
2023-05-18T02:45:11.935Z,101357.78
2023-05-18T02:47:39.627Z,101365.63
2023-05-18T02:50:08.493Z,101365.25
2023-05-18T02:52:37.509Z,101355.13
2023-05-18T02:55:06.232Z,101363.09
2023-05-18T02:57:34.449Z,101360.31
2023-05-18T03:00:02.123Z,101354.00
2023-05-18T03:02:30.112Z,101357.09
2023-05-18T03:04:57.920Z,101361.16
2023-05-18T03:07:27.632Z,101363.66
2023-05-18T03:09:56.667Z,101368.16
2023-05-18T03:12:24.389Z,101360.31
2023-05-18T03:14:51.979Z,101368.97
2023-05-18T03:17:19.587Z,101357.63
2023-05-18T03:19:47.262Z,101363.19
2023-05-18T03:22:15.036Z,101366.88
2023-05-18T03:24:43.209Z,101376.56
2023-05-18T03:27:16.637Z,101375.97
2023-05-18T03:29:44.290Z,101377.63
2023-05-18T03:32:11.928Z,101373.19
2023-05-18T03:34:39.567Z,101374.66
2023-05-18T03:37:07.203Z,101366.44
2023-05-18T03:39:34.871Z,101370.47
2023-05-18T03:42:02.708Z,101376.78
2023-05-18T03:44:31.811Z,101377.25
2023-05-18T03:46:59.491Z,101380.00
2023-05-18T03:49:27.181Z,101378.91
2023-05-18T03:51:54.823Z,101381.38
2023-05-18T03:54:22.567Z,101376.88
2023-05-18T03:56:51.039Z,101377.19
2023-05-18T03:59:18.692Z,101388.09
2023-05-18T04:01:47.701Z,101386.44
2023-05-18T04:04:18.678Z,101395.84
2023-05-18T04:06:46.938Z,101393.13
2023-05-18T04:09:17.302Z,101395.94
2023-05-18T04:11:45.137Z,101403.19
2023-05-18T04:14:14.163Z,101396.91
2023-05-18T04:16:42.959Z,101393.41
2023-05-18T04:19:12.061Z,101397.75
2023-05-18T04:21:43.513Z,101405.00
2023-05-18T04:24:14.488Z,101403.44
2023-05-18T04:26:42.673Z,101405.69
2023-05-18T04:29:13.341Z,101403.44
2023-05-18T04:31:44.727Z,101403.50
2023-05-18T04:34:14.253Z,101417.06
2023-05-18T04:36:42.752Z,101409.88
2023-05-18T04:39:11.115Z,101413.84
2023-05-18T04:41:42.237Z,101418.91
2023-05-18T04:44:10.180Z,101413.91
2023-05-18T04:46:40.766Z,101408.41
2023-05-18T04:49:09.242Z,101420.16
2023-05-18T04:51:38.253Z,101411.94
2023-05-18T04:54:06.483Z,101410.19
2023-05-18T04:56:34.384Z,101418.59
2023-05-18T04:59:02.628Z,101414.09
2023-05-18T05:01:30.398Z,101422.94
2023-05-18T05:03:59.676Z,101424.75
2023-05-18T05:06:27.698Z,101420.03
2023-05-18T05:08:56.757Z,101420.63
2023-05-18T05:11:24.442Z,101424.22
2023-05-18T05:13:52.103Z,101418.41
2023-05-18T05:16:19.796Z,101426.09
2023-05-18T05:18:47.639Z,101426.22
2023-05-18T05:21:15.420Z,101418.69
2023-05-18T05:23:45.307Z,101429.38
2023-05-18T05:26:14.585Z,101429.59
2023-05-18T05:28:42.196Z,101423.75
2023-05-18T05:31:10.542Z,101433.84
2023-05-18T05:33:38.240Z,101426.66
2023-05-18T05:36:06.417Z,101433.44
2023-05-18T05:38:34.126Z,101435.81
2023-05-18T05:41:01.861Z,101432.88
2023-05-18T05:43:30.922Z,101428.53
2023-05-18T05:45:58.623Z,101436.09
2023-05-18T05:48:26.303Z,101439.16
2023-05-18T05:50:53.986Z,101443.94
2023-05-18T05:53:23.474Z,101438.91
2023-05-18T05:55:51.117Z,101442.13
2023-05-18T05:58:19.210Z,101435.56
2023-05-18T06:00:48.696Z,101445.66
2023-05-18T06:03:16.391Z,101441.69
2023-05-18T06:05:44.067Z,101439.03
2023-05-18T06:08:11.798Z,101448.59
2023-05-18T06:10:41.219Z,101438.66
2023-05-18T06:13:08.928Z,101447.34
2023-05-18T06:15:36.621Z,101442.56
2023-05-18T06:18:06.116Z,101444.25
2023-05-18T06:20:33.944Z,101446.91
2023-05-18T06:23:02.029Z,101447.03
2023-05-18T06:25:29.877Z,101447.25
2023-05-18T06:27:57.693Z,101452.34
2023-05-18T06:30:25.372Z,101453.72
2023-05-18T06:32:53.088Z,101446.28
2023-05-18T06:35:22.711Z,101453.28
2023-05-18T06:37:50.407Z,101450.84
2023-05-18T06:40:18.331Z,101460.94
2023-05-18T06:42:46.210Z,101456.44
2023-05-18T06:45:14.058Z,101459.84
2023-05-18T06:47:42.556Z,101462.31
2023-05-18T06:50:11.090Z,101464.94
2023-05-18T06:52:40.259Z,101466.44
2023-05-18T06:55:09.181Z,101466.31
2023-05-18T06:57:36.786Z,101471.47
2023-05-18T07:00:07.306Z,101463.84
2023-05-18T07:02:35.107Z,101460.63
2023-05-18T07:05:05.536Z,101457.06
2023-05-18T07:07:33.422Z,101457.06
2023-05-18T07:10:03.595Z,101455.06
2023-05-18T07:12:31.499Z,101455.38
2023-05-18T07:14:59.277Z,101441.50
2023-05-18T07:17:27.042Z,101440.59
2023-05-18T07:19:54.773Z,101447.84
2023-05-18T07:22:22.482Z,101453.03
2023-05-18T07:24:50.370Z,101451.00
2023-05-18T07:27:19.393Z,101444.88
2023-05-18T07:29:47.041Z,101445.59
2023-05-18T07:32:14.755Z,101446.44
2023-05-18T07:34:43.440Z,101441.66
2023-05-18T07:37:11.154Z,101447.56
2023-05-18T07:39:38.934Z,101438.75
2023-05-18T07:42:07.221Z,101435.31
2023-05-18T07:44:36.289Z,101438.56
2023-05-18T07:47:04.151Z,101427.25
2023-05-18T07:49:31.795Z,101426.09
2023-05-18T07:52:00.516Z,101419.19
2023-05-18T07:54:28.211Z,101430.47
2023-05-18T07:56:57.450Z,101420.81
2023-05-18T07:59:26.212Z,101432.94
2023-05-18T08:01:55.255Z,101423.94
2023-05-18T08:04:23.005Z,101426.97
2023-05-18T08:06:54.628Z,101432.19
2023-05-18T08:09:22.964Z,101430.38
2023-05-18T08:11:52.230Z,101424.34
2023-05-18T08:14:19.885Z,101422.53
2023-05-18T08:16:47.651Z,101422.25
2023-05-18T08:19:16.920Z,101423.28
2023-05-18T08:21:45.673Z,101432.03
2023-05-18T08:24:13.573Z,101428.34
2023-05-18T08:26:41.226Z,101430.56
2023-05-18T08:29:10.594Z,101420.31
2023-05-18T08:31:39.004Z,101422.66
2023-05-18T08:34:07.624Z,101425.34
2023-05-18T08:36:37.347Z,101416.13
2023-05-18T08:39:05.784Z,101410.03
2023-05-18T08:41:37.162Z,101415.78
2023-05-18T08:44:10.543Z,101407.19
2023-05-18T08:46:42.622Z,101408.66
2023-05-18T08:49:11.503Z,101402.91
2023-05-18T08:51:43.548Z,101410.94
2023-05-18T08:54:12.766Z,101406.38
2023-05-18T08:56:40.958Z,101398.63
2023-05-18T08:59:10.019Z,101396.09
2023-05-18T09:01:38.372Z,101404.16
2023-05-18T09:04:06.762Z,101392.34
2023-05-18T09:06:35.934Z,101387.94
2023-05-18T09:09:06.460Z,101396.41
2023-05-18T09:11:36.078Z,101384.81
2023-05-18T09:14:03.755Z,101382.44
2023-05-18T09:16:31.564Z,101384.38
2023-05-18T09:18:59.423Z,101375.03
2023-05-18T09:21:27.273Z,101379.75
2023-05-18T09:23:55.235Z,101363.88
2023-05-18T09:26:24.588Z,101374.84
2023-05-18T09:28:54.008Z,101370.69
2023-05-18T09:31:24.553Z,101369.63
2023-05-18T09:33:53.473Z,101369.97
2023-05-18T09:36:26.056Z,101374.09
2023-05-18T09:38:54.206Z,101370.31
2023-05-18T09:41:21.862Z,101364.34
2023-05-18T09:43:52.437Z,101373.00
2023-05-18T09:46:22.054Z,101368.09
2023-05-18T09:48:52.745Z,101368.66
2023-05-18T09:51:21.864Z,101371.91
2023-05-18T09:53:50.508Z,101366.91
2023-05-18T09:56:19.137Z,101363.91
2023-05-18T09:58:47.171Z,101370.19
2023-05-18T10:01:16.289Z,101364.31
2023-05-18T10:03:45.729Z,101362.63
2023-05-18T10:06:13.948Z,101361.81
2023-05-18T10:08:42.401Z,101357.75
2023-05-18T10:11:10.274Z,101358.75
2023-05-18T10:13:39.725Z,101357.97
2023-05-18T10:16:09.210Z,101356.59
2023-05-18T10:18:39.443Z,101363.47
2023-05-18T10:21:08.108Z,101360.72
2023-05-18T10:23:37.769Z,101350.25
2023-05-18T10:26:07.695Z,101357.25
2023-05-18T10:28:42.166Z,101347.91
2023-05-18T10:31:10.252Z,101344.16
2023-05-18T10:33:39.361Z,101347.13
2023-05-18T10:36:08.484Z,101339.66
2023-05-18T10:38:39.750Z,101345.56
2023-05-18T10:41:08.727Z,101349.41
2023-05-18T10:43:37.341Z,101342.38
2023-05-18T10:46:07.394Z,101337.06
2023-05-18T10:48:40.804Z,101337.28
2023-05-18T10:51:09.319Z,101335.88
2023-05-18T10:53:37.842Z,101328.22
2023-05-18T10:56:07.779Z,101324.66
2023-05-18T10:58:37.974Z,101334.94
2023-05-18T11:01:10.371Z,101327.59
2023-05-18T11:03:40.992Z,101328.06
2023-05-18T11:06:13.023Z,101322.44
2023-05-18T11:08:45.470Z,101316.59
2023-05-18T11:11:13.224Z,101316.91
2023-05-18T11:13:46.202Z,101317.94
2023-05-18T11:16:13.841Z,101319.19
2023-05-18T11:18:45.642Z,101313.72
2023-05-18T11:21:51.608Z,101314.56
2023-05-18T11:24:24.751Z,101303.81
2023-05-18T11:26:54.288Z,101318.06
2023-05-18T11:29:24.491Z,101310.06
2023-05-18T11:31:53.986Z,101301.72
2023-05-18T11:34:42.274Z,101303.47
2023-05-18T11:37:10.839Z,101298.31
2023-05-18T11:39:47.879Z,101292.13
2023-05-18T11:42:20.452Z,101297.81
2023-05-18T11:44:53.340Z,101306.44
2023-05-18T11:47:21.106Z,101305.34
2023-05-18T11:49:53.120Z,101307.47
2023-05-18T11:52:22.081Z,101302.50
2023-05-18T11:54:53.144Z,101304.13
2023-05-18T11:57:22.190Z,101295.66
2023-05-18T11:59:54.963Z,101292.38
2023-05-18T12:02:26.725Z,101297.91
2023-05-18T12:04:58.047Z,101297.88
2023-05-18T12:07:26.178Z,101287.91
2023-05-18T12:09:53.927Z,101287.03
2023-05-18T12:12:23.311Z,101273.00
2023-05-18T12:14:55.816Z,101279.84
2023-05-18T12:17:24.373Z,101285.41
2023-05-18T12:19:52.173Z,101291.53
2023-05-18T12:22:21.478Z,101278.53
2023-05-18T12:24:52.644Z,101277.63
2023-05-18T12:27:22.963Z,101262.50
2023-05-18T12:29:51.028Z,101268.38
2023-05-18T12:32:18.992Z,101274.03
2023-05-18T12:34:46.699Z,101272.75
2023-05-18T12:37:14.371Z,101276.00
2023-05-18T12:39:43.429Z,101263.91
2023-05-18T12:42:12.561Z,101259.75
2023-05-18T12:44:40.564Z,101267.53
2023-05-18T12:47:08.270Z,101264.19
2023-05-18T12:49:39.943Z,101262.56
2023-05-18T12:52:12.661Z,101262.44
2023-05-18T12:54:59.809Z,101256.53
2023-05-18T12:57:30.903Z,101263.13
2023-05-18T12:59:59.096Z,101254.53
2023-05-18T13:02:34.541Z,101255.41
2023-05-18T13:05:03.579Z,101255.41
2023-05-18T13:07:31.333Z,101253.13
2023-05-18T13:10:06.772Z,101240.59
2023-05-18T13:12:40.211Z,101243.38
2023-05-18T13:15:12.391Z,101237.03
2023-05-18T13:17:40.519Z,101243.88
2023-05-18T13:20:15.540Z,101248.34
2023-05-18T13:22:44.492Z,101234.94
2023-05-18T13:25:14.620Z,101239.97
2023-05-18T13:27:42.541Z,101230.25
2023-05-18T13:30:11.230Z,101226.41
2023-05-18T13:32:39.152Z,101227.94
2023-05-18T13:35:07.437Z,101217.53
2023-05-18T13:37:35.388Z,101223.28
2023-05-18T13:40:03.249Z,101221.91
2023-05-18T13:42:32.310Z,101225.66
2023-05-18T13:44:59.974Z,101204.78
2023-05-18T13:47:27.647Z,101209.94
2023-05-18T13:49:55.348Z,101206.16
2023-05-18T13:52:23.112Z,101213.56
2023-05-18T13:54:50.890Z,101208.84
2023-05-18T13:57:18.634Z,101209.59
2023-05-18T13:59:47.793Z,101208.72
2023-05-18T14:02:15.599Z,101200.78
2023-05-18T14:04:43.348Z,101194.50
2023-05-18T14:07:11.119Z,101199.44
2023-05-18T14:09:38.800Z,101186.59
2023-05-18T14:12:07.470Z,101196.03
2023-05-18T14:14:35.103Z,101193.97
2023-05-18T14:17:04.307Z,101196.25
2023-05-18T14:19:32.044Z,101194.34
2023-05-18T14:21:59.730Z,101181.72
2023-05-18T14:24:27.497Z,101193.47
2023-05-18T14:26:55.136Z,101176.28
2023-05-18T14:29:22.809Z,101167.78
2023-05-18T14:31:51.013Z,101175.88
2023-05-18T14:34:20.053Z,101173.78
2023-05-18T14:36:47.770Z,101176.03
2023-05-18T14:39:15.489Z,101175.59
2023-05-18T14:41:43.172Z,101183.47
2023-05-18T14:44:11.042Z,101174.13
2023-05-18T14:46:39.107Z,101178.06
2023-05-18T14:49:06.833Z,101176.41
2023-05-18T14:51:36.024Z,101170.00
2023-05-18T14:54:03.819Z,101170.63
2023-05-18T14:56:31.765Z,101161.91
2023-05-18T14:58:59.482Z,101152.97
2023-05-18T15:01:27.191Z,101165.22
2023-05-18T15:03:54.923Z,101160.84
2023-05-18T15:06:22.762Z,101161.09
2023-05-18T15:08:51.772Z,101156.94
2023-05-18T15:11:20.129Z,101157.31
2023-05-18T15:13:47.924Z,101154.44
2023-05-18T15:16:16.177Z,101157.09
2023-05-18T15:18:44.218Z,101147.88
2023-05-18T15:21:11.875Z,101146.06
2023-05-18T15:23:39.511Z,101146.06
2023-05-18T15:26:09.380Z,101154.78
2023-05-18T15:28:37.160Z,101149.75
2023-05-18T15:31:04.833Z,101145.03
2023-05-18T15:33:32.693Z,101144.13
2023-05-18T15:36:00.471Z,101138.34
2023-05-18T15:38:29.652Z,101138.34
2023-05-18T15:40:57.401Z,101139.38
2023-05-18T15:43:26.591Z,101141.22
2023-05-18T15:45:54.378Z,101139.75
2023-05-18T15:48:22.078Z,101141.94
2023-05-18T15:50:49.846Z,101129.78
2023-05-18T15:53:17.499Z,101132.88
2023-05-18T15:55:45.257Z,101139.09
2023-05-18T15:58:14.635Z,101136.19
2023-05-18T16:00:44.164Z,101138.88
2023-05-18T16:03:12.496Z,101139.91
2023-05-18T16:05:40.449Z,101126.44
2023-05-18T16:08:08.112Z,101128.75
2023-05-18T16:10:38.417Z,101119.63
2023-05-18T16:13:06.511Z,101129.34
2023-05-18T16:15:35.190Z,101122.13
2023-05-18T16:18:04.435Z,101133.91
2023-05-18T16:20:32.483Z,101130.78
2023-05-18T16:23:00.643Z,101135.53
2023-05-18T16:25:29.328Z,101133.03
2023-05-18T16:27:57.075Z,101132.00
2023-05-18T16:30:24.766Z,101131.31
2023-05-18T16:32:52.489Z,101126.13
2023-05-18T16:35:21.584Z,101136.06
2023-05-18T16:37:49.243Z,101131.31
2023-05-18T16:40:16.914Z,101134.97
2023-05-18T16:42:47.174Z,101131.31
2023-05-18T16:45:14.940Z,101135.31
2023-05-18T16:47:42.693Z,101130.75
2023-05-18T16:50:11.274Z,101141.94
2023-05-18T16:52:40.270Z,101135.53
2023-05-18T16:55:08.479Z,101145.47
2023-05-18T16:57:36.783Z,101143.44
2023-05-18T17:00:09.156Z,101147.97
2023-05-18T17:02:38.401Z,101136.56
2023-05-18T17:05:08.448Z,101149.66
2023-05-18T17:07:36.970Z,101148.81
2023-05-18T17:10:07.091Z,101142.59
2023-05-18T17:12:36.373Z,101142.13
2023-05-18T17:15:04.395Z,101142.13
2023-05-18T17:17:32.192Z,101136.31
2023-05-18T17:19:59.847Z,101130.66
2023-05-18T17:22:27.582Z,101135.16
2023-05-18T17:24:55.315Z,101136.19
2023-05-18T17:27:24.342Z,101135.81
2023-05-18T17:29:52.139Z,101133.31
2023-05-18T17:32:20.086Z,101122.53
2023-05-18T17:34:47.757Z,101132.28
2023-05-18T17:37:15.568Z,101128.13
2023-05-18T17:39:43.383Z,101129.13
2023-05-18T17:42:11.006Z,101127.47
2023-05-18T17:44:40.320Z,101133.91
2023-05-18T17:47:08.313Z,101128.44
2023-05-18T17:49:35.981Z,101127.00
2023-05-18T17:52:03.731Z,101132.75
2023-05-18T17:54:31.500Z,101136.22
2023-05-18T17:56:59.168Z,101130.19
2023-05-18T17:59:26.847Z,101128.06
2023-05-18T18:01:55.838Z,101133.66
2023-05-18T18:04:23.551Z,101127.63
2023-05-18T18:06:54.206Z,101125.94
2023-05-18T18:09:22.715Z,101127.16
2023-05-18T18:11:50.458Z,101122.63
2023-05-18T18:14:18.210Z,101126.50
2023-05-18T18:16:45.913Z,101129.41
2023-05-18T18:19:15.004Z,101131.28
2023-05-18T18:21:42.756Z,101131.47
2023-05-18T18:25:06.022Z,101131.09
2023-05-18T19:59:01.503Z,101222.72
2023-05-18T20:01:29.192Z,101221.72
2023-05-18T20:03:59.186Z,101216.16
2023-05-18T20:06:28.066Z,101217.00
2023-05-18T20:08:55.845Z,101214.50
2023-05-18T20:11:23.523Z,101219.41
2023-05-18T20:13:51.471Z,101222.09
2023-05-18T20:16:20.534Z,101225.13
2023-05-18T20:18:48.180Z,101225.66
2023-05-18T20:21:17.761Z,101220.50
2023-05-18T20:23:47.258Z,101233.25
2023-05-18T20:26:14.931Z,101228.63
2023-05-18T20:28:42.666Z,101227.78
2023-05-18T20:31:10.533Z,101236.34
2023-05-18T20:33:39.698Z,101229.13
2023-05-18T20:36:09.025Z,101235.28
2023-05-18T20:38:38.681Z,101235.94
2023-05-18T20:41:08.017Z,101235.28
2023-05-18T20:43:37.719Z,101237.84
2023-05-18T20:46:05.853Z,101234.78
2023-05-18T20:48:35.779Z,101236.00
2023-05-18T20:51:05.359Z,101239.38
2023-05-18T20:53:33.201Z,101238.75
2023-05-18T20:56:01.555Z,101238.25
2023-05-18T20:58:29.292Z,101239.66
2023-05-18T21:00:57.007Z,101242.19
2023-05-18T21:03:24.758Z,101248.28
2023-05-18T21:05:52.926Z,101244.16
2023-05-18T21:08:21.967Z,101246.38
2023-05-18T21:10:49.658Z,101244.19
2023-05-18T21:13:17.379Z,101251.56
2023-05-18T21:15:45.112Z,101248.06
2023-05-18T21:18:12.925Z,101246.94
2023-05-18T21:20:40.734Z,101248.47
2023-05-18T21:23:08.436Z,101251.16
2023-05-18T21:25:38.886Z,101246.13
2023-05-18T21:28:06.504Z,101248.50
2023-05-18T21:30:34.259Z,101254.69
2023-05-18T21:33:02.193Z,101257.56
2023-05-18T21:35:30.190Z,101258.25
2023-05-18T21:37:57.912Z,101259.63
2023-05-18T21:40:25.865Z,101249.78
2023-05-18T21:42:56.121Z,101256.31
2023-05-18T21:45:24.881Z,101258.84
2023-05-18T21:47:52.635Z,101258.47
2023-05-18T21:50:20.502Z,101259.69
2023-05-18T21:52:48.199Z,101251.66
2023-05-18T21:55:16.104Z,101259.69
2023-05-18T21:57:43.904Z,101255.38
2023-05-18T22:00:16.653Z,101257.84
2023-05-18T22:02:44.434Z,101250.34
2023-05-18T22:05:12.197Z,101251.69
2023-05-18T22:07:40.000Z,101254.72
2023-05-18T22:10:08.352Z,101248.38
2023-05-18T22:12:37.459Z,101261.59
2023-05-18T22:15:05.908Z,101257.59
2023-05-18T22:17:36.543Z,101259.75
2023-05-18T22:20:05.810Z,101257.09
2023-05-18T22:22:36.323Z,101262.44
2023-05-18T22:25:04.035Z,101251.44
2023-05-18T22:27:33.749Z,101263.47
2023-05-18T22:30:03.399Z,101252.56
2023-05-18T22:32:32.657Z,101250.41
2023-05-18T22:35:04.230Z,101253.41
2023-05-18T22:37:32.590Z,101254.06
2023-05-18T22:40:00.319Z,101250.88
2023-05-18T22:42:28.077Z,101253.56
2023-05-18T22:44:55.690Z,101248.38
2023-05-18T22:47:23.805Z,101253.03
2023-05-18T22:49:51.877Z,101248.22
2023-05-18T22:52:21.223Z,101253.56
2023-05-18T22:54:49.229Z,101248.03
2023-05-18T22:57:17.101Z,101242.34
2023-05-18T22:59:45.017Z,101252.03
2023-05-18T23:02:13.139Z,101243.34
2023-05-18T23:04:40.933Z,101253.03
2023-05-18T23:07:08.665Z,101247.38
2023-05-18T23:09:39.758Z,101241.66
2023-05-18T23:12:10.263Z,101250.03
2023-05-18T23:14:39.479Z,101246.31
2023-05-18T23:17:08.145Z,101246.31
2023-05-18T23:19:36.212Z,101251.34
2023-05-18T23:22:05.528Z,101246.31
2023-05-18T23:24:33.335Z,101250.31
2023-05-18T23:27:02.411Z,101248.66
2023-05-18T23:29:30.049Z,101247.81
2023-05-18T23:31:57.939Z,101245.44
2023-05-18T23:34:26.218Z,101245.59
2023-05-18T23:36:57.416Z,101250.16
2023-05-18T23:39:27.743Z,101239.91
2023-05-18T23:41:59.124Z,101248.44
2023-05-18T23:44:29.613Z,101240.91
2023-05-18T23:46:57.872Z,101240.22
2023-05-18T23:49:26.444Z,101242.88
2023-05-18T23:51:55.089Z,101240.19
2023-05-18T23:54:23.306Z,101238.03
2023-05-18T23:56:51.585Z,101234.19
2023-05-18T23:59:19.556Z,101233.25
